• Join FlightAware (Why Join?)
  • Login
  • US Flag 
05:10AM EDT


 

Airport Tracker/Info


-or-


 

Live Flight TrackerFlight Track Log ✈ VH-TKQ ✈ 20-Jan-2014 ✈ YPJT / JAD - YPJT / JAD

Flight Track Log - Related Links

Times and Time Zones

All times are in EST time to prevent confusion due to time zone crossing. See the VH-TKQ flight status page for this flight to view local times or setup timezone preferences in your user account.

Time Position Orientation Groundspeed Altitude Reporting Facility
EST Latitude Longitude Course Direction KTS MPH feet Rate Location/Type
06:35PM -32.1504 116.0574 98° East 88 101 3,300  Level Aus ATC (RADAR)
06:36PM -32.1526 116.0775 98° East 89 102 3,600 120 Climbing Aus ATC (RADAR)
06:36PM -32.1530 116.0994 91° East 112 129 3,500 60 Descending Aus ATC (RADAR)
06:37PM -32.1532 116.1277 91° East 109 125 3,700 300 Climbing Aus ATC (RADAR)
06:38PM -32.1533 116.1456 90° East 106 122 3,900 360 Climbing Aus ATC (RADAR)
06:38PM -32.1504 116.1653 80° East 101 116 4,100 360 Climbing Aus ATC (RADAR)
06:40PM -32.1429 116.2100 79° East 101 116 4,600 180 Climbing Aus ATC (RADAR)
06:40PM -32.1409 116.2252 81° East 107 123 4,500 60 Descending Aus ATC (RADAR)
06:41PM -32.1355 116.2509 76° East 115 132 4,700 60 Climbing Aus ATC (RADAR)
06:41PM -32.1311 116.2742 77° East 120 138 4,600 -120 Descending Aus ATC (RADAR)
06:42PM -32.1253 116.3018 76° East 126 145 4,600 60 Level Aus ATC (RADAR)
06:43PM -32.1035 116.3243 41° Northeast 128 147 4,700 60 Climbing Aus ATC (RADAR)
06:43PM -32.0961 116.3304 35° Northeast 128 147 4,700 -180 Level Aus ATC (RADAR)
06:44PM -32.0741 116.3725 58° Northeast 126 145 4,500 -120 Descending Aus ATC (RADAR)
06:45PM -32.0650 116.3904 59° Northeast 125 144 4,500  Level Aus ATC (RADAR)
06:45PM -32.0619 116.3967 60° Northeast 126 145 4,500  Level Aus ATC (RADAR)
06:48PM -32.0073 116.4996 260° West 4,500  Level Aus ATC (Calculated)
06:50PM -32.0093 116.4857 260° West  Level Estimated
06:50PM -31.9594 116.5895 257° West 4,500  Level Aus ATC (Calculated)
06:52PM -31.9626 116.5731 257° West  Level Estimated
06:52PM -31.9174 116.6682 242° Southwest 4,500  Level Aus ATC (Calculated)
06:53PM -31.9646 116.5629 257° West  Level Estimated
06:54PM -31.9206 116.6543 255° West  Level Estimated
06:55PM -31.9230 116.6441 255° West  Level Estimated
06:56PM -31.9253 116.6339 255° West  Level Estimated
06:57PM -31.9277 116.6238 255° West  Level Estimated
06:58PM -31.9301 116.6136 255° West  Level Estimated
06:59PM -31.9324 116.6034 255° West  Level Estimated
07:00PM -31.9348 116.5933 255° West  Level Estimated
07:01PM -31.9371 116.5831 255° West  Level Estimated
07:02PM -31.9395 116.5729 255° West  Level Estimated
07:03PM -31.9418 116.5628 255° West  Level Estimated
07:04PM -31.9442 116.5526 255° West  Level Estimated
07:05PM -31.9465 116.5424 255° West  Level Estimated
07:06PM -31.9489 116.5322 255° West  Level Estimated
07:07PM -31.9512 116.5221 255° West  Level Estimated
07:07PM -31.7741 117.2603 254° West 4,500  Level Aus ATC (Calculated)
07:09PM -31.7777 117.2456 254° West  Level Estimated
07:10PM -31.7801 117.2355 254° West  Level Estimated
07:11PM -31.7825 117.2253 254° West  Level Estimated
07:12PM -31.7850 117.2152 254° West  Level Estimated
07:13PM -31.7874 117.2051 254° West  Level Estimated
07:13PM -31.7093 117.5240 254° West 4,500  Level Aus ATC (Calculated)
07:15PM -31.7132 117.5080 254° West  Level Estimated
07:16PM -31.7156 117.4979 254° West  Level Estimated
07:17PM -31.7181 117.4878 254° West  Level Estimated
07:18PM -31.7206 117.4777 254° West  Level Estimated
07:19PM -31.7230 117.4676 254° West  Level Estimated
07:20PM -31.7255 117.4575 254° West  Level Estimated
07:21PM -31.7279 117.4473 254° West  Level Estimated
07:22PM -31.7304 117.4372 254° West  Level Estimated
07:23PM -31.7329 117.4271 254° West  Level Estimated
07:24PM -31.7353 117.4170 254° West  Level Estimated
07:25PM -31.7378 117.4069 254° West  Level Estimated
07:26PM -31.7402 117.3968 254° West  Level Estimated
07:27PM -31.7427 117.3867 254° West  Level Estimated
07:28PM -31.7451 117.3765 254° West  Level Estimated
07:29PM -31.7476 117.3664 254° West  Level Estimated
07:30PM -31.7500 117.3563 254° West  Level Estimated
07:31PM -31.7525 117.3462 254° West  Level Estimated
07:32PM -31.7549 117.3361 254° West  Level Estimated
07:33PM -31.7574 117.3259 254° West  Level Estimated
07:34PM -31.7598 117.3158 254° West  Level Estimated
07:35PM -31.7623 117.3057 254° West  Level Estimated
07:36PM -31.7647 117.2956 254° West  Level Estimated
07:37PM -31.7672 117.2855 254° West  Level Estimated
07:38PM -31.7696 117.2753 254° West  Level Estimated
07:39PM -31.7721 117.2652 254° West  Level Estimated
07:40PM -31.7745 117.2551 254° West  Level Estimated
07:41PM -31.7769 117.2450 254° West  Level Estimated
07:42PM -31.7794 117.2349 254° West  Level Estimated
07:43PM -31.7818 117.2247 254° West  Level Estimated
07:44PM -31.7843 117.2146 254° West  Level Estimated
07:45PM -31.7867 117.2045 254° West  Level Estimated
07:46PM -31.7891 117.1944 254° West  Level Estimated
07:47PM -31.7916 117.1842 254° West  Level Estimated
07:48PM -31.7940 117.1741 254° West  Level Estimated
07:49PM -31.7964 117.1640 254° West  Level Estimated
07:50PM -31.7989 117.1538 254° West  Level Estimated
07:51PM -31.8013 117.1437 254° West  Level Estimated
07:52PM -31.8037 117.1336 254° West  Level Estimated
07:53PM -31.8062 117.1235 254° West  Level Estimated
07:54PM -31.8086 117.1133 254° West  Level Estimated
07:55PM -31.8110 117.1032 254° West  Level Estimated
07:56PM -31.8135 117.0931 254° West  Level Estimated
07:57PM -31.8159 117.0829 254° West  Level Estimated
07:58PM -31.8183 117.0728 254° West  Level Estimated
07:58PM -31.2403 119.3598 253° West 4,500  Level Aus ATC (Calculated)
08:00PM -31.2451 119.3415 253° West  Level Estimated
08:01PM -31.2477 119.3315 253° West  Level Estimated
08:02PM -31.2504 119.3215 253° West  Level Estimated
08:03PM -31.2530 119.3114 253° West  Level Estimated
08:04PM -31.2556 119.3014 253° West  Level Estimated
08:05PM -31.2582 119.2914 253° West  Level Estimated
08:06PM -31.2608 119.2814 253° West  Level Estimated
08:07PM -31.2635 119.2714 253° West  Level Estimated
08:07PM -31.3135 118.9251 252° West 4,500  Level Aus ATC (Calculated)
08:09PM -31.3186 118.9063 252° West  Level Estimated
08:10PM -31.3213 118.8963 252° West  Level Estimated
08:11PM -31.3240 118.8864 252° West  Level Estimated
08:12PM -31.3267 118.8764 252° West  Level Estimated
08:13PM -31.3295 118.8664 252° West  Level Estimated
08:14PM -31.3322 118.8564 252° West  Level Estimated
08:15PM -31.3349 118.8464 252° West  Level Estimated
08:16PM -31.3376 118.8365 252° West  Level Estimated
08:17PM -31.3403 118.8265 252° West  Level Estimated
08:18PM -31.3430 118.8165 252° West  Level Estimated
08:19PM -31.3457 118.8065 252° West  Level Estimated
08:20PM -31.3484 118.7965 252° West  Level Estimated
08:21PM -31.3511 118.7865 252° West  Level Estimated
08:22PM -31.3538 118.7765 252° West  Level Estimated
08:23PM -31.3565 118.7665 252° West  Level Estimated
08:24PM -31.3592 118.7566 252° West  Level Estimated
08:25PM -31.3619 118.7466 252° West  Level Estimated
08:26PM -31.3646 118.7366 252° West  Level Estimated
08:27PM -31.3673 118.7266 252° West  Level Estimated
08:27PM -31.4832 117.8792 81° East 4,500  Level Aus ATC (Calculated)
08:28PM -31.3699 118.7166 252° West  Level Estimated
08:29PM -31.4882 117.8635 250° West  Level Estimated
08:30PM -31.4913 117.8536 250° West  Level Estimated
08:31PM -31.4944 117.8438 250° West  Level Estimated
08:32PM -31.4976 117.8340 250° West  Level Estimated
08:33PM -31.5007 117.8242 250° West  Level Estimated
08:34PM -31.5038 117.8143 250° West  Level Estimated
08:35PM -31.5069 117.8045 250° West  Level Estimated
08:35PM -31.5379 117.5297 248° West 4,500  Level Aus ATC (Calculated)
08:37PM -31.5441 117.5118 248° West  Level Estimated
08:37PM -31.5514 117.4423 247° West 4,500  Level Aus ATC (Calculated)
08:39PM -31.5578 117.4244 247° West  Level Estimated
08:40PM -31.5613 117.4147 247° West  Level Estimated
08:41PM -31.5647 117.4051 247° West  Level Estimated
08:42PM -31.5682 117.3954 247° West  Level Estimated
08:43PM -31.5717 117.3857 247° West  Level Estimated
08:44PM -31.5751 117.3760 247° West  Level Estimated
08:45PM -31.5786 117.3663 247° West  Level Estimated
08:46PM -31.5820 117.3567 247° West  Level Estimated
08:47PM -31.5855 117.3470 247° West  Level Estimated
08:48PM -31.5890 117.3373 247° West  Level Estimated
08:49PM -31.5924 117.3276 247° West  Level Estimated
08:50PM -31.5959 117.3179 247° West  Level Estimated
08:51PM -31.5993 117.3082 247° West  Level Estimated
08:52PM -31.6028 117.2985 247° West  Level Estimated
08:53PM -31.6062 117.2888 247° West  Level Estimated
08:54PM -31.6097 117.2791 247° West  Level Estimated
08:54PM -31.6833 116.5667 360° North 4,500  Level Aus ATC (Calculated)
08:55PM -31.6833 116.5667 234° Southwest 100 -7,800 Descending Aus ATC (Calculated)
08:57PM -31.6924 116.5517 234° Southwest  Level Estimated
08:58PM -31.6977 116.5432 234° Southwest  Level Estimated
08:59PM -31.7029 116.5346 234° Southwest  Level Estimated
09:00PM -31.7081 116.5261 234° Southwest  Level Estimated
09:00PM -31.7872 116.3959 234° Southwest 100  Level Aus ATC (Calculated)
09:02PM -31.7964 116.3807 234° Southwest  Level Estimated
09:03PM -31.8016 116.3722 234° Southwest  Level Estimated
09:04PM -31.8068 116.3636 234° Southwest  Level Estimated
09:05PM -31.8120 116.3550 234° Southwest  Level Estimated
09:05PM -31.9426 116.1390 55° Northeast 100  Level Aus ATC (Calculated)
09:06PM -31.8172 116.3465 234° Southwest  Level Estimated
09:07PM -31.9487 116.1288 235° Southwest  Level Estimated
09:08PM -31.9539 116.1202 235° Southwest  Level Estimated
09:09PM -31.9591 116.1116 235° Southwest  Level Estimated
09:10PM -31.9643 116.1030 235° Southwest  Level Estimated
09:11PM -31.9694 116.0944 235° Southwest  Level Estimated
09:11PM -32.0974 115.8812 55° Northeast 100  Level Aus ATC (Calculated)
09:12PM -31.9746 116.0858 235° Southwest  Level Estimated
09:13PM -32.0975 115.8811 239° Southwest  Level Estimated
09:14PM -32.0975 115.8811 90° East  Level Estimated
09:15PM -32.0975 115.8811 90° East  Level Estimated
09:16PM -32.0975 115.8811 90° East  Level Estimated
09:17PM -32.0975 115.8811 90° East  Level Estimated